Terminal Aerodrome Forecast
Issued by NWS Greer, SC

Home | Current Version | Previous Version | Text Only | Print | Product List | Glossary On
Versions: 1 2 3 4 5 6 7 8 9 10 11 12 13 14 15 16 17 18 19 20
037
FTUS42 KGSP 261929 AAE
TAFGSP
TAF AMD
KGSP 261929Z 2619/2718 20007KT P6SM VCSH SCT015 SCT030 BKN045
      TEMPO 2620/2621 2SM +SHRA SCT008 OVC015
     FM270800 18004KT P6SM BKN020 PROB30 2708/2711 2SM -SHRA OVC005
     FM271100 19004KT P6SM BKN003 PROB30 2712/2714 2SM -SHRA
     FM271600 21006KT P6SM BKN020 PROB30 2716/2718 4SM -SHRA OVC007=

USA.gov is the U.S. government's official web portal to all federal, state and local government web resources and services.